Latest Coastal Weather Observations for Gove Airport

IDD60701

Issued at 9:31 am CST Friday 9 December 2016 (issued every 10 minutes, with the page automatically refreshed every 10 minutes)

About coastal observations | Map of coastal stations | Coastal observations for NT | Marine services | Other Formats
Station Details ID: 014508 Name: GOVE AIRPORT Lat: -12.27 Lon: 136.82 Height: 51.6 m
Data from the previous 72 hours. | See also: Recent months at Gove Airport
Date/Time
CST
Temp
°C
Wind Pressure Rain since
9am
mm
Weather Cloud Vis
km
Sea
Height
m
Swell
Dir  Spd
kts
Gust
kts
hPa Trend Height
m
Period
s
Dir
09/09:00am 30.6 SE 7 13 1009.5 F 0.0 - Mostly clear 10 - - - -
09/08:30am 30.8 SE 6 9 1009.5 - 0.0 - Mostly clear 10 - - - -
09/08:00am 30.0 ESE 7 11 1009.5 - 0.0 - - 10 - - - -
09/07:30am 28.9 ESE 5 7 1009.5 - 0.0 - - 10 - - - -
09/07:00am 27.1 SE 4 5 1009.3 - 0.0 - - 10 - - - -
09/06:30am 24.9 CALM 0 0 1008.8 - 0.0 - - 10 - - - -
09/06:00am 23.6 CALM 0 0 1008.3 R 0.0 - - 10 - - - -
09/05:30am 23.5 CALM 0 0 1008.0 - 0.0 - - 10 - - - -
09/05:00am 23.9 S 1 4 1007.7 - 0.0 - - 10 - - - -
09/04:30am 23.9 SW 3 6 1007.1 - 0.0 - - 10 - - - -
09/04:00am 23.5 SW 4 5 1006.8 - 0.0 - - 10 - - - -
09/03:30am 23.5 CALM 0 0 1006.6 - 0.0 - - 10 - - - -
09/03:00am 23.8 CALM 0 0 1006.6 R 0.0 - - 10 - - - -
09/02:30am 24.4 CALM 0 0 1006.8 - 0.0 - - 10 - - - -
09/02:00am 24.2 CALM 0 0 1007.0 - 0.0 - - 10 - - - -
09/01:30am 24.2 CALM 0 0 1007.4 - 0.0 - - 10 - - - -
09/01:00am 24.6 CALM 0 0 1007.7 - 0.0 - - 10 - - - -
09/12:30am 25.3 ENE 2 4 1007.7 - 0.0 - - 10 - - - -
09/12:00am 26.1 NNE 1 4 1008.0 R 0.0 - - 10 - - - -
 
Date/Time
CST
Temp
°C
Wind Pressure Rain since
9am
mm
Weather Cloud Vis
km
Sea
Height
m
Swell
Dir  Spd
kts
Gust
kts
hPa Trend Height
m
Period
s
Dir
08/11:30pm 25.2 CALM 0 0 1008.0 - 0.0 - - 10 - - - -
08/11:00pm 26.0 SE 3 4 1008.1 - 0.0 - - 10 - - - -
08/10:30pm 25.8 SSE 1 4 1008.0 - 0.0 - - 10 - - - -
08/10:00pm 26.1 CALM 0 0 1007.6 - 0.0 - - 10 - - - -
08/09:30pm 26.9 ESE 4 4 1007.5 - 0.0 - - 10 - - - -
08/09:00pm 27.3 CALM 0 3 1007.3 F 0.0 - Mostly clear 10 - - - -
08/08:30pm 28.4 E 4 6 1007.1 - 0.0 - - 10 - - - -
08/08:00pm 28.6 ESE 5 7 1006.7 - 0.0 - - 10 - - - -
08/07:30pm 29.0 E 5 6 1006.5 - 0.0 - - 10 - - - -
08/07:00pm 29.2 E 6 7 1006.2 - 0.0 - - 10 - - - -
08/06:30pm 29.7 E 8 10 1005.9 - 0.0 - - 10 - - - -
08/06:00pm 30.2 E 10 11 1005.7 R 0.0 - - 10 - - - -
08/05:30pm 30.9 E 9 13 1005.4 - 0.0 - - 10 - - - -
08/05:00pm 31.5 E 11 15 1005.2 - 0.0 - - 10 - - - -
08/04:30pm 31.7 E 12 16 1005.0 - 0.0 - Mostly clear 10 - - - -
08/04:00pm 32.5 ENE 11 15 1005.0 - 0.0 - Mostly clear 10 - - - -
08/03:30pm 32.9 NE 11 18 1004.9 - 0.0 - Mostly clear 10 - - - -
08/03:00pm 33.0 ENE 9 14 1005.2 F 0.0 - Mostly clear 10 - - - -
08/02:30pm 32.9 ENE 11 13 1005.5 - 0.0 - Mostly clear 10 - - - -
08/02:00pm 33.6 NE 9 14 1005.8 - 0.0 - Mostly clear 10 - - - -
08/01:30pm 33.2 NE 10 17 1006.0 - 0.0 - Mostly clear 10 - - - -
08/01:00pm 33.0 NE 11 17 1006.4 - 0.0 - Mostly clear 10 - - - -
08/12:30pm 33.2 NE 9 15 1006.7 - 0.0 - Mostly clear 10 - - - -
08/12:00pm 33.2 ENE 9 14 1007.2 F 0.0 - Mostly clear 10 - - - -
08/11:30am 31.6 ESE 8 12 1007.5 - 0.0 - Mostly clear 10 - - - -
08/11:00am 31.4 E 9 12 1007.9 - 0.0 - Partly cloudy 10 - - - -
08/10:30am 31.1 E 8 12 1008.3 - 0.0 - Partly cloudy 10 - - - -
08/10:00am 31.1 ENE 8 11 1008.5 - 0.0 - Partly cloudy 10 - - - -
08/09:30am 31.5 ENE 7 12 1008.6 - 0.0 - Partly cloudy 10 - - - -
08/09:00am 30.0 NE 7 11 1008.6 F 0.0 - Mostly cloudy 10 - - - -
08/08:30am 29.3 ENE 5 8 1008.5 - 0.0 - Partly cloudy 10 - - - -
08/08:00am 29.2 ENE 3 5 1008.5 - 0.0 - - 10 - - - -
08/07:30am 27.9 CALM 0 0 1008.5 - 0.0 - - 10 - - - -
08/07:00am 25.9 CALM 0 0 1008.3 - 0.0 - - 10 - - - -
08/06:30am 24.5 CALM 0 0 1008.1 - 0.0 - - 9 - - - -
08/06:00am 23.9 CALM 0 0 1007.7 R 0.0 - - 7 - - - -
08/05:35am 24.0 CALM 0 0 1007.3 - 0.0 - - 6 - - - -
08/05:30am 24.2 CALM 0 0 1007.3 - 0.0 - - 8 - - - -
08/05:04am 24.2 CALM 0 0 1007.3 - 0.0 - - 10 - - - -
08/05:00am 24.3 CALM 0 0 1007.2 - 0.0 - - 9 - - - -
08/04:48am 24.0 SW 4 6 1007.0 - 0.0 - - 6 - - - -
08/04:30am 24.3 CALM 0 3 1006.9 - 0.0 - - 8 - - - -
08/04:00am 24.8 SW 5 7 1006.7 - 0.0 - - 8 - - - -
08/03:30am 24.2 SW 5 7 1006.8 - 0.0 - - 10 - - - -
08/03:00am 25.1 E 2 6 1006.6 F 0.0 - - 10 - - - -
08/02:30am 26.5 NNE 5 6 1006.6 - 0.0 - - 10 - - - -
08/02:00am 25.1 CALM 0 0 1007.0 - 0.0 - - 10 - - - -
08/01:30am 25.5 CALM 0 0 1007.3 - 0.0 - - 10 - - - -
08/01:00am 25.8 CALM 0 0 1007.5 - 0.0 - - 10 - - - -
08/12:30am 26.1 CALM 0 0 1008.0 - 0.0 - - 10 - - - -
08/12:00am 26.6 CALM 0 0 1008.3 F 0.0 - Mostly clear 10 - - - -
 
Date/Time
CST
Temp
°C
Wind Pressure Rain since
9am
mm
Weather Cloud Vis
km
Sea
Height
m
Swell
Dir  Spd
kts
Gust
kts
hPa Trend Height
m
Period
s
Dir
07/11:30pm 26.7 SSE 4 5 1008.5 - 0.0 - - 9 - - - -
07/11:00pm 27.3 ESE 3 4 1008.8 - 0.0 - - 10 - - - -
07/10:30pm 28.3 ENE 4 5 1008.9 - 0.0 - - 10 - - - -
07/10:00pm 28.4 ENE 5 7 1008.9 - 0.0 - Partly cloudy 10 - - - -
07/09:30pm 28.5 NE 3 5 1008.9 - 0.0 - Partly cloudy 10 - - - -
07/09:00pm 28.5 E 4 6 1008.7 R 0.0 - Mostly clear 10 - - - -
07/08:30pm 28.6 NE 4 7 1008.3 - 0.0 - Partly cloudy 10 - - - -
07/08:00pm 28.6 NE 5 7 1007.9 - 0.0 - Partly cloudy 10 - - - -
07/07:30pm 28.7 NE 6 7 1007.6 - 0.0 - - 10 - - - -
07/07:00pm 29.0 NE 6 8 1007.2 - 0.0 - - 10 - - - -
07/06:30pm 29.4 NE 7 10 1006.9 - 0.0 - - 10 - - - -
07/06:00pm 29.7 NE 9 11 1006.7 F 0.0 - Mostly clear 10 - - - -
07/05:30pm 30.5 NE 9 13 1006.6 - 0.0 - - 10 - - - -
07/05:00pm 30.7 E 9 12 1006.3 - 0.0 - - 10 - - - -
07/04:30pm 31.2 ENE 8 11 1006.2 - 0.0 - Mostly clear 10 - - - -
07/04:00pm 31.8 E 10 14 1006.4 - 0.0 - Mostly clear 10 - - - -
07/03:30pm 31.2 E 10 15 1006.6 - 0.0 - Mostly clear 10 - - - -
07/03:00pm 31.5 ENE 10 15 1006.8 F 0.0 - Mostly clear 10 - - - -
07/02:30pm 31.9 ENE 11 17 1007.1 - 0.0 - Mostly clear 10 - - - -
07/02:00pm 31.9 ENE 12 16 1007.4 - 0.0 - - 10 - - - -
07/01:30pm 32.9 ENE 10 15 1007.6 - 0.0 - Mostly clear 10 - - - -
07/01:00pm 32.6 NE 8 13 1007.8 - 0.0 - Mostly clear 10 - - - -
07/12:30pm 32.7 E 10 16 1008.2 - 0.0 - Mostly clear 10 - - - -
07/12:00pm 33.2 ENE 8 12 1008.6 F 0.0 - Mostly clear 10 - - - -
07/11:30am 32.7 E 7 10 1008.9 - 0.0 - Mostly clear 10 - - - -
07/11:00am 32.3 ENE 8 12 1009.4 - 0.0 - Mostly clear 10 - - - -
07/10:30am 32.0 E 7 12 1009.7 - 0.0 - Mostly clear 10 - - - -
07/10:00am 31.4 SSE 5 9 1010.0 - 0.0 - Mostly clear 10 - - - -
07/09:30am 30.7 ESE 5 8 1010.4 - 0.0 - Mostly clear 10 - - - -
07/09:00am 30.0 S 4 8 1010.5 F 0.2 - Partly cloudy 10 - - - -
07/08:30am 29.6 SE 7 9 1010.7 - 0.2 - Mostly clear 10 - - - -
07/08:00am 29.3 SE 6 8 1010.5 - 0.2 - - 10 - - - -
07/07:30am 28.3 SSE 4 5 1010.2 - 0.2 - - 10 - - - -
07/07:00am 26.1 CALM 0 0 1010.0 - 0.2 - - 10 - - - -
07/06:30am 24.5 CALM 0 0 1009.8 - 0.2 - Partly cloudy 10 - - - -
07/06:00am 23.3 CALM 0 0 1009.4 R 0.2 - Mostly clear 9 - - - -
07/05:30am 23.6 CALM 0 0 1009.1 - 0.2 - - 10 - - - -
07/05:00am 23.5 CALM 0 0 1008.7 - 0.2 - - 10 - - - -
07/04:30am 23.9 CALM 0 0 1008.3 - 0.2 - - 9 - - - -
07/04:00am 24.3 CALM 0 0 1008.1 - 0.2 - - 10 - - - -
07/03:30am 24.4 CALM 0 0 1008.1 - 0.2 - - 10 - - - -
07/03:00am 24.5 CALM 0 0 1008.0 R 0.2 - - 10 - - - -
07/02:30am 24.5 CALM 0 0 1007.9 - 0.2 - - 10 - - - -
07/02:00am 24.6 CALM 0 0 1008.0 - 0.2 - - 9 - - - -
07/01:30am 24.8 CALM 0 0 1008.0 - 0.2 - - 10 - - - -
07/01:00am 25.1 CALM 0 0 1008.2 - 0.2 - Partly cloudy 10 - - - -
07/12:30am 25.6 S 3 5 1008.3 - 0.2 - - 10 - - - -
07/12:00am 25.7 S 3 4 1008.6 R 0.2 - - 10 - - - -
 
Date/Time
CST
Temp
°C
Wind Pressure Rain since
9am
mm
Weather Cloud Vis
km
Sea
Height
m
Swell
Dir  Spd
kts
Gust
kts
hPa Trend Height
m
Period
s
Dir
06/11:30pm 25.9 S 2 4 1008.5 - 0.2 - Partly cloudy 10 - - - -
06/11:00pm 26.3 CALM 0 0 1008.9 - 0.2 - Partly cloudy 10 - - - -
06/10:30pm 27.1 SE 3 5 1008.8 - 0.2 - - 10 - - - -
06/10:00pm 27.3 SE 4 5 1008.7 - 0.2 - - 10 - - - -
06/09:30pm 28.1 ESE 5 6 1008.6 - 0.2 - Partly cloudy 10 - - - -
06/09:00pm 28.3 ESE 5 7 1008.3 F 0.2 - - 10 - - - -
06/08:30pm 28.6 ESE 7 10 1008.2 - 0.2 - Partly cloudy 10 - - - -
06/08:00pm 28.8 ESE 7 9 1007.8 - 0.2 - Partly cloudy 10 - - - -
06/07:30pm 29.0 ESE 8 11 1007.7 - 0.2 - Partly cloudy 10 - - - -
06/07:00pm 29.4 ESE 9 12 1007.5 - 0.2 - Partly cloudy 10 - - - -
06/06:30pm 29.8 SSE 7 9 1007.2 - 0.2 - Partly cloudy 10 - - - -
06/06:00pm 30.3 SE 8 11 1007.0 F 0.2 - Mostly clear 10 - - - -
06/05:30pm 30.3 SE 10 13 1006.8 - 0.2 - Partly cloudy 10 - - - -
06/05:00pm 31.5 ESE 11 13 1006.8 - 0.2 - Partly cloudy 10 - - - -
06/04:30pm 31.3 SE 11 15 1007.0 - 0.2 - Partly cloudy 10 - - - -
06/04:00pm 32.4 SE 13 17 1007.0 - 0.2 - Partly cloudy 10 - - - -
06/03:30pm 32.3 SE 11 16 1007.1 - 0.2 - Partly cloudy 10 - - - -
06/03:00pm 32.4 ESE 13 16 1007.3 F 0.2 - Cloudy 10 - - - -
06/02:30pm 32.3 ESE 12 17 1007.4 - 0.2 - Partly cloudy 10 - - - -
06/02:00pm 32.8 SE 12 17 1007.8 - 0.2 - Partly cloudy 10 - - - -
06/01:30pm 31.9 E 9 15 1008.2 - 0.2 - Partly cloudy 10 - - - -
06/01:00pm 32.0 E 11 16 1008.8 - 0.2 - Partly cloudy 10 - - - -
06/12:30pm 33.0 E 12 15 1009.2 - 0.2 - Partly cloudy 10 - - - -
06/12:00pm 32.4 ESE 11 16 1009.4 F 0.2 - Partly cloudy 10 - - - -
06/11:30am 31.9 E 9 14 1009.9 - 0.2 - Partly cloudy 10 - - - -
06/11:00am 30.4 E 12 16 1010.4 - 0.2 Showers Mostly cloudy 10 - - - -
06/10:30am 32.4 E 11 17 1010.7 - 0.2 - Mostly cloudy 10 - - - -
06/10:00am 31.3 E 9 13 1010.9 - 0.2 - Partly cloudy 10 - - - -

Other Formats:

Comma delimited format used in spreadsheet applications
http://www.bom.gov.au/fwo/IDD60701/IDD60701.94150.axf

JavaScript Object Notation format (JSON) in row-major order
http://www.bom.gov.au/fwo/IDD60701/IDD60701.94150.json